sensor_id;sensor_type;location;lat;lon;timestamp;P1;durP1;ratioP1;P2;durP2;ratioP2
65162;SDS011;51751;55.714;37.436;2023-06-24T00:01:25;9.10;;;7.63;;
65162;SDS011;51751;55.714;37.436;2023-06-24T00:03:51;8.70;;;7.30;;
65162;SDS011;51751;55.714;37.436;2023-06-24T00:06:19;10.95;;;7.57;;
65162;SDS011;51751;55.714;37.436;2023-06-24T00:08:46;8.88;;;7.40;;
65162;SDS011;51751;55.714;37.436;2023-06-24T00:11:12;9.38;;;7.85;;
65162;SDS011;51751;55.714;37.436;2023-06-24T00:13:41;10.98;;;7.57;;
65162;SDS011;51751;55.714;37.436;2023-06-24T00:16:08;9.38;;;7.88;;
65162;SDS011;51751;55.714;37.436;2023-06-24T00:18:35;11.48;;;8.32;;
65162;SDS011;51751;55.714;37.436;2023-06-24T00:21:02;11.55;;;8.23;;
65162;SDS011;51751;55.714;37.436;2023-06-24T00:23:28;17.27;;;8.43;;
65162;SDS011;51751;55.714;37.436;2023-06-24T00:25:56;9.63;;;7.88;;
65162;SDS011;51751;55.714;37.436;2023-06-24T00:28:23;10.02;;;7.93;;
65162;SDS011;51751;55.714;37.436;2023-06-24T00:30:49;10.90;;;8.10;;
65162;SDS011;51751;55.714;37.436;2023-06-24T00:33:15;11.20;;;8.77;;
65162;SDS011;51751;55.714;37.436;2023-06-24T00:35:45;11.18;;;8.18;;
65162;SDS011;51751;55.714;37.436;2023-06-24T00:38:11;13.27;;;8.45;;
65162;SDS011;51751;55.714;37.436;2023-06-24T00:40:38;9.75;;;7.88;;
65162;SDS011;51751;55.714;37.436;2023-06-24T00:43:04;10.38;;;8.23;;
65162;SDS011;51751;55.714;37.436;2023-06-24T00:45:33;10.27;;;8.30;;
65162;SDS011;51751;55.714;37.436;2023-06-24T00:47:59;13.65;;;8.07;;
65162;SDS011;51751;55.714;37.436;2023-06-24T00:50:25;9.90;;;8.45;;
65162;SDS011;51751;55.714;37.436;2023-06-24T00:52:53;12.48;;;8.65;;
65162;SDS011;51751;55.714;37.436;2023-06-24T00:55:37;17.52;;;15.35;;
65162;SDS011;51751;55.714;37.436;2023-06-24T00:58:04;31.67;;;25.63;;
65162;SDS011;51751;55.714;37.436;2023-06-24T01:03:28;12.63;;;10.80;;
65162;SDS011;51751;55.714;37.436;2023-06-24T01:05:55;13.52;;;9.65;;
65162;SDS011;51751;55.714;37.436;2023-06-24T01:08:21;10.23;;;9.23;;
65162;SDS011;51751;55.714;37.436;2023-06-24T01:10:51;9.70;;;8.60;;
65162;SDS011;51751;55.714;37.436;2023-06-24T01:13:17;9.85;;;8.35;;
65162;SDS011;51751;55.714;37.436;2023-06-24T01:15:47;10.45;;;8.45;;
65162;SDS011;51751;55.714;37.436;2023-06-24T01:18:21;10.57;;;8.40;;
65162;SDS011;51751;55.714;37.436;2023-06-24T01:20:54;12.15;;;8.65;;
65162;SDS011;51751;55.714;37.436;2023-06-24T01:23:43;9.80;;;7.97;;
65162;SDS011;51751;55.714;37.436;2023-06-24T01:34:55;11.77;;;8.85;;
65162;SDS011;51751;55.714;37.436;2023-06-24T01:37:28;9.70;;;8.52;;
65162;SDS011;51751;55.714;37.436;2023-06-24T01:42:39;6.93;;;5.85;;
65162;SDS011;51751;55.714;37.436;2023-06-24T01:45:06;7.63;;;6.10;;
65162;SDS011;51751;55.714;37.436;2023-06-24T01:47:33;8.80;;;5.25;;
65162;SDS011;51751;55.714;37.436;2023-06-24T01:50:00;7.57;;;4.82;;
65162;SDS011;51751;55.714;37.436;2023-06-24T01:52:29;5.93;;;4.00;;
65162;SDS011;51751;55.714;37.436;2023-06-24T01:54:58;4.78;;;3.78;;
65162;SDS011;51751;55.714;37.436;2023-06-24T01:57:25;4.05;;;3.30;;
65162;SDS011;51751;55.714;37.436;2023-06-24T01:59:53;4.05;;;3.30;;
65162;SDS011;51751;55.714;37.436;2023-06-24T02:02:20;3.38;;;2.78;;
65162;SDS011;51751;55.714;37.436;2023-06-24T02:04:50;3.00;;;2.70;;
65162;SDS011;51751;55.714;37.436;2023-06-24T02:07:18;3.22;;;2.45;;
65162;SDS011;51751;55.714;37.436;2023-06-24T02:09:47;3.35;;;2.10;;
65162;SDS011;51751;55.714;37.436;2023-06-24T02:12:13;2.42;;;2.22;;
65162;SDS011;51751;55.714;37.436;2023-06-24T02:14:43;2.88;;;2.10;;
65162;SDS011;51751;55.714;37.436;2023-06-24T02:17:10;3.72;;;2.10;;
65162;SDS011;51751;55.714;37.436;2023-06-24T02:19:37;2.95;;;2.10;;
65162;SDS011;51751;55.714;37.436;2023-06-24T02:22:04;3.67;;;2.10;;
65162;SDS011;51751;55.714;37.436;2023-06-24T02:24:35;2.00;;;1.90;;
65162;SDS011;51751;55.714;37.436;2023-06-24T02:27:07;3.25;;;1.90;;
65162;SDS011;51751;55.714;37.436;2023-06-24T02:29:53;4.03;;;2.30;;
65162;SDS011;51751;55.714;37.436;2023-06-24T02:32:19;1.77;;;1.67;;
65162;SDS011;51751;55.714;37.436;2023-06-24T02:34:45;1.70;;;1.60;;
65162;SDS011;51751;55.714;37.436;2023-06-24T02:37:12;1.63;;;1.52;;
65162;SDS011;51751;55.714;37.436;2023-06-24T02:39:41;1.58;;;1.48;;
65162;SDS011;51751;55.714;37.436;2023-06-24T02:42:10;1.60;;;1.50;;
65162;SDS011;51751;55.714;37.436;2023-06-24T02:44:38;1.52;;;1.42;;
65162;SDS011;51751;55.714;37.436;2023-06-24T02:47:05;1.60;;;1.50;;
65162;SDS011;51751;55.714;37.436;2023-06-24T02:49:36;2.35;;;1.63;;
65162;SDS011;51751;55.714;37.436;2023-06-24T02:52:04;1.90;;;1.50;;
65162;SDS011;51751;55.714;37.436;2023-06-24T02:54:31;2.28;;;1.60;;
65162;SDS011;51751;55.714;37.436;2023-06-24T02:57:30;3.92;;;1.63;;
65162;SDS011;51751;55.714;37.436;2023-06-24T03:00:27;2.10;;;1.50;;
65162;SDS011;51751;55.714;37.436;2023-06-24T03:03:09;1.60;;;1.50;;
65162;SDS011;51751;55.714;37.436;2023-06-24T03:05:39;3.00;;;1.60;;
65162;SDS011;51751;55.714;37.436;2023-06-24T03:08:06;1.98;;;1.58;;
65162;SDS011;51751;55.714;37.436;2023-06-24T03:10:33;2.95;;;1.77;;
65162;SDS011;51751;55.714;37.436;2023-06-24T03:13:02;1.50;;;1.40;;
65162;SDS011;51751;55.714;37.436;2023-06-24T03:15:36;1.50;;;1.40;;
65162;SDS011;51751;55.714;37.436;2023-06-24T03:18:02;1.63;;;1.40;;
65162;SDS011;51751;55.714;37.436;2023-06-24T03:20:28;4.82;;;1.55;;
65162;SDS011;51751;55.714;37.436;2023-06-24T03:22:59;1.45;;;1.30;;
65162;SDS011;51751;55.714;37.436;2023-06-24T03:25:25;2.83;;;1.35;;
65162;SDS011;51751;55.714;37.436;2023-06-24T03:28:10;2.30;;;1.38;;
65162;SDS011;51751;55.714;37.436;2023-06-24T03:30:46;2.33;;;1.30;;
65162;SDS011;51751;55.714;37.436;2023-06-24T03:33:16;1.23;;;1.13;;
65162;SDS011;51751;55.714;37.436;2023-06-24T03:35:45;1.40;;;1.30;;
65162;SDS011;51751;55.714;37.436;2023-06-24T03:38:13;1.40;;;1.30;;
65162;SDS011;51751;55.714;37.436;2023-06-24T03:40:40;2.33;;;1.30;;
65162;SDS011;51751;55.714;37.436;2023-06-24T03:43:06;1.40;;;1.30;;
65162;SDS011;51751;55.714;37.436;2023-06-24T03:45:33;1.20;;;1.20;;
65162;SDS011;51751;55.714;37.436;2023-06-24T03:47:59;1.55;;;1.20;;
65162;SDS011;51751;55.714;37.436;2023-06-24T03:50:25;1.73;;;1.40;;
65162;SDS011;51751;55.714;37.436;2023-06-24T03:52:51;1.30;;;1.20;;
65162;SDS011;51751;55.714;37.436;2023-06-24T03:55:17;1.20;;;1.10;;
65162;SDS011;51751;55.714;37.436;2023-06-24T03:57:44;1.30;;;1.20;;
65162;SDS011;51751;55.714;37.436;2023-06-24T04:00:10;2.38;;;1.10;;
65162;SDS011;51751;55.714;37.436;2023-06-24T04:02:46;1.20;;;1.20;;
65162;SDS011;51751;55.714;37.436;2023-06-24T04:05:15;1.30;;;1.20;;
65162;SDS011;51751;55.714;37.436;2023-06-24T04:07:41;2.40;;;1.13;;
65162;SDS011;51751;55.714;37.436;2023-06-24T04:10:12;1.20;;;1.10;;
65162;SDS011;51751;55.714;37.436;2023-06-24T04:12:44;1.23;;;1.13;;
65162;SDS011;51751;55.714;37.436;2023-06-24T04:15:11;1.20;;;1.10;;
65162;SDS011;51751;55.714;37.436;2023-06-24T04:17:40;2.28;;;1.10;;
65162;SDS011;51751;55.714;37.436;2023-06-24T04:20:06;2.40;;;1.20;;
65162;SDS011;51751;55.714;37.436;2023-06-24T04:22:36;3.65;;;1.10;;
65162;SDS011;51751;55.714;37.436;2023-06-24T04:25:09;1.20;;;1.10;;
65162;SDS011;51751;55.714;37.436;2023-06-24T04:27:35;1.30;;;1.20;;
65162;SDS011;51751;55.714;37.436;2023-06-24T04:30:02;1.20;;;1.05;;
65162;SDS011;51751;55.714;37.436;2023-06-24T04:32:31;0.90;;;0.90;;
65162;SDS011;51751;55.714;37.436;2023-06-24T04:34:58;1.00;;;1.00;;
65162;SDS011;51751;55.714;37.436;2023-06-24T04:37:31;1.48;;;1.00;;
65162;SDS011;51751;55.714;37.436;2023-06-24T04:40:00;1.42;;;1.00;;
65162;SDS011;51751;55.714;37.436;2023-06-24T04:42:25;1.08;;;0.90;;
65162;SDS011;51751;55.714;37.436;2023-06-24T04:45:01;2.03;;;0.80;;
65162;SDS011;51751;55.714;37.436;2023-06-24T04:47:30;0.90;;;0.90;;
65162;SDS011;51751;55.714;37.436;2023-06-24T04:49:56;1.02;;;0.90;;
65162;SDS011;51751;55.714;37.436;2023-06-24T04:52:43;0.70;;;0.70;;
65162;SDS011;51751;55.714;37.436;2023-06-24T04:55:10;3.28;;;0.90;;
65162;SDS011;51751;55.714;37.436;2023-06-24T04:57:36;1.40;;;0.77;;
65162;SDS011;51751;55.714;37.436;2023-06-24T05:00:05;1.10;;;1.00;;
65162;SDS011;51751;55.714;37.436;2023-06-24T05:02:33;0.80;;;0.80;;
65162;SDS011;51751;55.714;37.436;2023-06-24T05:05:01;5.90;;;4.28;;
65162;SDS011;51751;55.714;37.436;2023-06-24T05:07:30;6.47;;;3.85;;
65162;SDS011;51751;55.714;37.436;2023-06-24T05:09:56;3.60;;;0.90;;
65162;SDS011;51751;55.714;37.436;2023-06-24T05:12:22;0.77;;;0.77;;
65162;SDS011;51751;55.714;37.436;2023-06-24T05:14:51;1.20;;;0.95;;
65162;SDS011;51751;55.714;37.436;2023-06-24T05:17:36;0.82;;;0.82;;
65162;SDS011;51751;55.714;37.436;2023-06-24T05:20:02;1.65;;;0.90;;
65162;SDS011;51751;55.714;37.436;2023-06-24T05:22:30;3.03;;;0.90;;
65162;SDS011;51751;55.714;37.436;2023-06-24T05:24:55;1.02;;;0.82;;
65162;SDS011;51751;55.714;37.436;2023-06-24T05:27:21;0.93;;;0.93;;
65162;SDS011;51751;55.714;37.436;2023-06-24T05:29:50;3.75;;;0.98;;
65162;SDS011;51751;55.714;37.436;2023-06-24T05:32:16;1.67;;;0.93;;
65162;SDS011;51751;55.714;37.436;2023-06-24T05:34:43;1.20;;;1.10;;
65162;SDS011;51751;55.714;37.436;2023-06-24T05:37:09;1.00;;;1.00;;
65162;SDS011;51751;55.714;37.436;2023-06-24T05:39:34;1.00;;;1.00;;
65162;SDS011;51751;55.714;37.436;2023-06-24T05:42:03;1.02;;;1.02;;
65162;SDS011;51751;55.714;37.436;2023-06-24T05:44:30;1.10;;;1.10;;
65162;SDS011;51751;55.714;37.436;2023-06-24T05:46:57;3.25;;;1.02;;
65162;SDS011;51751;55.714;37.436;2023-06-24T05:49:28;1.52;;;1.10;;
65162;SDS011;51751;55.714;37.436;2023-06-24T05:51:57;7.20;;;1.00;;
65162;SDS011;51751;55.714;37.436;2023-06-24T05:54:24;1.08;;;1.00;;
65162;SDS011;51751;55.714;37.436;2023-06-24T05:56:50;1.63;;;1.00;;
65162;SDS011;51751;55.714;37.436;2023-06-24T05:59:16;1.30;;;1.20;;
65162;SDS011;51751;55.714;37.436;2023-06-24T06:01:42;1.52;;;0.95;;
65162;SDS011;51751;55.714;37.436;2023-06-24T06:04:08;1.38;;;1.00;;
65162;SDS011;51751;55.714;37.436;2023-06-24T06:06:34;1.88;;;1.45;;
65162;SDS011;51751;55.714;37.436;2023-06-24T06:09:03;1.10;;;1.00;;
65162;SDS011;51751;55.714;37.436;2023-06-24T06:11:50;3.13;;;1.17;;
65162;SDS011;51751;55.714;37.436;2023-06-24T06:14:16;3.58;;;1.20;;
65162;SDS011;51751;55.714;37.436;2023-06-24T06:16:42;1.95;;;1.00;;
65162;SDS011;51751;55.714;37.436;2023-06-24T06:19:11;2.90;;;1.20;;
65162;SDS011;51751;55.714;37.436;2023-06-24T06:21:37;1.75;;;1.15;;
65162;SDS011;51751;55.714;37.436;2023-06-24T06:24:06;1.90;;;1.30;;
65162;SDS011;51751;55.714;37.436;2023-06-24T06:26:32;1.15;;;1.10;;
65162;SDS011;51751;55.714;37.436;2023-06-24T06:28:58;1.40;;;1.10;;
65162;SDS011;51751;55.714;37.436;2023-06-24T06:31:24;1.75;;;1.15;;
65162;SDS011;51751;55.714;37.436;2023-06-24T06:33:51;2.05;;;1.20;;
65162;SDS011;51751;55.714;37.436;2023-06-24T06:36:17;2.60;;;1.20;;
65162;SDS011;51751;55.714;37.436;2023-06-24T06:38:46;3.78;;;1.20;;
65162;SDS011;51751;55.714;37.436;2023-06-24T06:41:15;1.58;;;1.30;;
65162;SDS011;51751;55.714;37.436;2023-06-24T06:43:42;2.33;;;1.05;;
65162;SDS011;51751;55.714;37.436;2023-06-24T06:46:08;1.50;;;1.40;;
65162;SDS011;51751;55.714;37.436;2023-06-24T06:48:34;2.40;;;1.33;;
65162;SDS011;51751;55.714;37.436;2023-06-24T06:51:01;1.17;;;1.10;;
65162;SDS011;51751;55.714;37.436;2023-06-24T06:53:27;1.65;;;1.35;;
65162;SDS011;51751;55.714;37.436;2023-06-24T06:55:52;5.18;;;1.33;;
65162;SDS011;51751;55.714;37.436;2023-06-24T06:58:19;2.55;;;1.48;;
65162;SDS011;51751;55.714;37.436;2023-06-24T07:00:44;1.63;;;1.42;;
65162;SDS011;51751;55.714;37.436;2023-06-24T07:03:10;3.67;;;1.60;;
65162;SDS011;51751;55.714;37.436;2023-06-24T07:05:36;2.33;;;1.50;;
65162;SDS011;51751;55.714;37.436;2023-06-24T07:08:02;3.33;;;1.40;;
65162;SDS011;51751;55.714;37.436;2023-06-24T07:10:36;3.53;;;1.50;;
65162;SDS011;51751;55.714;37.436;2023-06-24T07:13:02;1.70;;;1.60;;
65162;SDS011;51751;55.714;37.436;2023-06-24T07:15:30;7.68;;;1.80;;
65162;SDS011;51751;55.714;37.436;2023-06-24T07:17:57;2.03;;;1.60;;
65162;SDS011;51751;55.714;37.436;2023-06-24T07:20:24;2.08;;;1.50;;
65162;SDS011;51751;55.714;37.436;2023-06-24T07:22:50;4.53;;;1.80;;
65162;SDS011;51751;55.714;37.436;2023-06-24T07:25:16;3.35;;;1.55;;
65162;SDS011;51751;55.714;37.436;2023-06-24T07:27:42;2.28;;;1.75;;
65162;SDS011;51751;55.714;37.436;2023-06-24T07:30:08;3.78;;;1.70;;
65162;SDS011;51751;55.714;37.436;2023-06-24T07:32:34;3.28;;;1.88;;
65162;SDS011;51751;55.714;37.436;2023-06-24T07:35:00;5.05;;;1.90;;
65162;SDS011;51751;55.714;37.436;2023-06-24T07:37:30;3.95;;;1.88;;
65162;SDS011;51751;55.714;37.436;2023-06-24T07:39:58;3.03;;;1.88;;
65162;SDS011;51751;55.714;37.436;2023-06-24T07:42:24;3.40;;;1.63;;
65162;SDS011;51751;55.714;37.436;2023-06-24T07:44:59;6.40;;;1.92;;
65162;SDS011;51751;55.714;37.436;2023-06-24T07:47:26;2.30;;;1.88;;
65162;SDS011;51751;55.714;37.436;2023-06-24T07:49:52;2.63;;;1.80;;
65162;SDS011;51751;55.714;37.436;2023-06-24T07:52:17;3.75;;;2.25;;
65162;SDS011;51751;55.714;37.436;2023-06-24T07:54:43;2.80;;;1.95;;
65162;SDS011;51751;55.714;37.436;2023-06-24T07:57:09;2.97;;;1.88;;
65162;SDS011;51751;55.714;37.436;2023-06-24T07:59:35;2.50;;;2.08;;
65162;SDS011;51751;55.714;37.436;2023-06-24T08:02:04;3.83;;;1.77;;
65162;SDS011;51751;55.714;37.436;2023-06-24T08:04:33;8.02;;;2.00;;
65162;SDS011;51751;55.714;37.436;2023-06-24T08:06:59;9.38;;;2.10;;
65162;SDS011;51751;55.714;37.436;2023-06-24T08:09:25;5.07;;;2.10;;
65162;SDS011;51751;55.714;37.436;2023-06-24T08:11:51;5.53;;;2.05;;
65162;SDS011;51751;55.714;37.436;2023-06-24T08:14:19;5.70;;;2.10;;
65162;SDS011;51751;55.714;37.436;2023-06-24T08:16:45;3.00;;;2.00;;
65162;SDS011;51751;55.714;37.436;2023-06-24T08:19:14;3.58;;;2.08;;
65162;SDS011;51751;55.714;37.436;2023-06-24T08:21:40;3.05;;;2.03;;
65162;SDS011;51751;55.714;37.436;2023-06-24T08:24:11;2.72;;;2.08;;
65162;SDS011;51751;55.714;37.436;2023-06-24T08:26:37;11.00;;;2.53;;
65162;SDS011;51751;55.714;37.436;2023-06-24T08:29:03;2.65;;;2.00;;
65162;SDS011;51751;55.714;37.436;2023-06-24T08:31:29;8.07;;;2.25;;
65162;SDS011;51751;55.714;37.436;2023-06-24T08:33:58;2.88;;;2.00;;
65162;SDS011;51751;55.714;37.436;2023-06-24T08:36:26;4.32;;;2.10;;
65162;SDS011;51751;55.714;37.436;2023-06-24T08:38:53;4.22;;;2.35;;
65162;SDS011;51751;55.714;37.436;2023-06-24T08:41:19;5.18;;;2.40;;
65162;SDS011;51751;55.714;37.436;2023-06-24T08:43:44;4.90;;;2.20;;
65162;SDS011;51751;55.714;37.436;2023-06-24T08:46:11;3.35;;;2.22;;
65162;SDS011;51751;55.714;37.436;2023-06-24T08:48:39;3.10;;;2.05;;
65162;SDS011;51751;55.714;37.436;2023-06-24T08:51:08;3.55;;;2.20;;
65162;SDS011;51751;55.714;37.436;2023-06-24T08:53:36;6.10;;;2.28;;
65162;SDS011;51751;55.714;37.436;2023-06-24T08:56:03;3.75;;;2.30;;
65162;SDS011;51751;55.714;37.436;2023-06-24T08:58:30;3.95;;;2.25;;
65162;SDS011;51751;55.714;37.436;2023-06-24T09:00:56;4.15;;;2.95;;
65162;SDS011;51751;55.714;37.436;2023-06-24T09:03:23;5.47;;;2.90;;
65162;SDS011;51751;55.714;37.436;2023-06-24T09:05:49;5.25;;;2.67;;
65162;SDS011;51751;55.714;37.436;2023-06-24T09:08:15;3.67;;;2.10;;
65162;SDS011;51751;55.714;37.436;2023-06-24T09:10:43;3.80;;;2.10;;
65162;SDS011;51751;55.714;37.436;2023-06-24T09:13:09;4.32;;;2.10;;
65162;SDS011;51751;55.714;37.436;2023-06-24T09:15:36;4.70;;;2.30;;
65162;SDS011;51751;55.714;37.436;2023-06-24T09:18:03;4.63;;;2.05;;
65162;SDS011;51751;55.714;37.436;2023-06-24T09:20:30;3.83;;;2.08;;
65162;SDS011;51751;55.714;37.436;2023-06-24T09:23:05;3.47;;;2.20;;
65162;SDS011;51751;55.714;37.436;2023-06-24T09:25:31;3.13;;;1.95;;
65162;SDS011;51751;55.714;37.436;2023-06-24T09:28:00;4.05;;;2.10;;
65162;SDS011;51751;55.714;37.436;2023-06-24T09:30:27;4.40;;;1.92;;
65162;SDS011;51751;55.714;37.436;2023-06-24T09:32:54;3.20;;;2.22;;
65162;SDS011;51751;55.714;37.436;2023-06-24T09:35:21;2.95;;;2.20;;
65162;SDS011;51751;55.714;37.436;2023-06-24T09:37:52;4.28;;;2.20;;
65162;SDS011;51751;55.714;37.436;2023-06-24T09:40:19;5.10;;;2.47;;
65162;SDS011;51751;55.714;37.436;2023-06-24T09:42:55;4.95;;;2.63;;
65162;SDS011;51751;55.714;37.436;2023-06-24T09:45:26;6.82;;;2.70;;
65162;SDS011;51751;55.714;37.436;2023-06-24T09:47:53;3.95;;;2.90;;
65162;SDS011;51751;55.714;37.436;2023-06-24T09:50:19;3.30;;;2.90;;
65162;SDS011;51751;55.714;37.436;2023-06-24T09:52:46;8.45;;;3.28;;
65162;SDS011;51751;55.714;37.436;2023-06-24T09:55:16;3.50;;;3.00;;
65162;SDS011;51751;55.714;37.436;2023-06-24T09:57:45;4.90;;;3.65;;
65162;SDS011;51751;55.714;37.436;2023-06-24T10:00:13;5.93;;;3.30;;
65162;SDS011;51751;55.714;37.436;2023-06-24T10:03:05;4.43;;;3.17;;
65162;SDS011;51751;55.714;37.436;2023-06-24T10:05:32;5.10;;;3.60;;
65162;SDS011;51751;55.714;37.436;2023-06-24T10:07:58;5.30;;;3.38;;
65162;SDS011;51751;55.714;37.436;2023-06-24T10:10:23;3.67;;;3.38;;
65162;SDS011;51751;55.714;37.436;2023-06-24T10:12:49;5.07;;;3.83;;
65162;SDS011;51751;55.714;37.436;2023-06-24T10:15:15;5.93;;;3.90;;
65162;SDS011;51751;55.714;37.436;2023-06-24T10:17:41;10.98;;;3.80;;
65162;SDS011;51751;55.714;37.436;2023-06-24T10:20:07;4.57;;;3.83;;
65162;SDS011;51751;55.714;37.436;2023-06-24T10:22:34;3.70;;;3.30;;
65162;SDS011;51751;55.714;37.436;2023-06-24T10:25:02;4.60;;;3.75;;
65162;SDS011;51751;55.714;37.436;2023-06-24T10:27:38;6.10;;;3.90;;
65162;SDS011;51751;55.714;37.436;2023-06-24T10:30:05;7.22;;;4.00;;
65162;SDS011;51751;55.714;37.436;2023-06-24T10:32:41;5.32;;;3.53;;
65162;SDS011;51751;55.714;37.436;2023-06-24T10:35:26;9.20;;;3.88;;
65162;SDS011;51751;55.714;37.436;2023-06-24T10:37:56;7.72;;;3.85;;
65162;SDS011;51751;55.714;37.436;2023-06-24T10:40:38;4.05;;;3.65;;
65162;SDS011;51751;55.714;37.436;2023-06-24T10:45:51;5.28;;;4.10;;
65162;SDS011;51751;55.714;37.436;2023-06-24T10:48:18;5.40;;;3.88;;
65162;SDS011;51751;55.714;37.436;2023-06-24T10:50:47;7.03;;;4.05;;
65162;SDS011;51751;55.714;37.436;2023-06-24T10:53:16;4.68;;;4.00;;
65162;SDS011;51751;55.714;37.436;2023-06-24T10:55:44;8.07;;;3.58;;
65162;SDS011;51751;55.714;37.436;2023-06-24T10:58:11;5.53;;;3.90;;
65162;SDS011;51751;55.714;37.436;2023-06-24T11:00:43;6.28;;;3.83;;
65162;SDS011;51751;55.714;37.436;2023-06-24T11:03:10;7.53;;;3.80;;
65162;SDS011;51751;55.714;37.436;2023-06-24T11:05:40;10.23;;;4.97;;
65162;SDS011;51751;55.714;37.436;2023-06-24T11:08:29;7.65;;;4.18;;
65162;SDS011;51751;55.714;37.436;2023-06-24T11:10:55;8.48;;;4.40;;
65162;SDS011;51751;55.714;37.436;2023-06-24T11:13:21;9.43;;;5.57;;
65162;SDS011;51751;55.714;37.436;2023-06-24T11:15:47;69.75;;;32.17;;
65162;SDS011;51751;55.714;37.436;2023-06-24T11:18:13;18.00;;;9.38;;
65162;SDS011;51751;55.714;37.436;2023-06-24T11:20:39;14.23;;;7.00;;
65162;SDS011;51751;55.714;37.436;2023-06-24T11:23:06;13.52;;;6.75;;
65162;SDS011;51751;55.714;37.436;2023-06-24T11:25:55;6.18;;;4.38;;
65162;SDS011;51751;55.714;37.436;2023-06-24T11:28:26;8.95;;;4.70;;
65162;SDS011;51751;55.714;37.436;2023-06-24T11:30:53;8.18;;;4.38;;
65162;SDS011;51751;55.714;37.436;2023-06-24T11:33:28;6.93;;;4.15;;
65162;SDS011;51751;55.714;37.436;2023-06-24T11:35:56;6.50;;;3.53;;
65162;SDS011;51751;55.714;37.436;2023-06-24T11:38:23;7.72;;;3.70;;
65162;SDS011;51751;55.714;37.436;2023-06-24T11:40:50;7.22;;;3.90;;
65162;SDS011;51751;55.714;37.436;2023-06-24T11:43:15;8.25;;;4.15;;
65162;SDS011;51751;55.714;37.436;2023-06-24T11:45:41;6.13;;;3.70;;
65162;SDS011;51751;55.714;37.436;2023-06-24T11:48:07;5.32;;;3.72;;
65162;SDS011;51751;55.714;37.436;2023-06-24T11:50:35;9.93;;;3.80;;
65162;SDS011;51751;55.714;37.436;2023-06-24T11:53:01;7.93;;;3.47;;
65162;SDS011;51751;55.714;37.436;2023-06-24T11:55:27;5.72;;;3.40;;
65162;SDS011;51751;55.714;37.436;2023-06-24T11:58:00;8.25;;;3.92;;
65162;SDS011;51751;55.714;37.436;2023-06-24T12:00:31;7.53;;;3.10;;
65162;SDS011;51751;55.714;37.436;2023-06-24T12:02:58;6.25;;;3.58;;
65162;SDS011;51751;55.714;37.436;2023-06-24T12:05:30;8.57;;;3.45;;
65162;SDS011;51751;55.714;37.436;2023-06-24T12:07:57;5.05;;;3.30;;
65162;SDS011;51751;55.714;37.436;2023-06-24T12:10:23;8.25;;;3.10;;
65162;SDS011;51751;55.714;37.436;2023-06-24T12:12:50;7.88;;;2.90;;
65162;SDS011;51751;55.714;37.436;2023-06-24T12:15:16;3.42;;;2.90;;
65162;SDS011;51751;55.714;37.436;2023-06-24T12:17:44;4.45;;;2.80;;
65162;SDS011;51751;55.714;37.436;2023-06-24T12:20:10;4.53;;;3.00;;
65162;SDS011;51751;55.714;37.436;2023-06-24T12:22:36;8.32;;;2.78;;
65162;SDS011;51751;55.714;37.436;2023-06-24T12:25:03;4.60;;;2.78;;
65162;SDS011;51751;55.714;37.436;2023-06-24T12:27:31;5.07;;;2.67;;
65162;SDS011;51751;55.714;37.436;2023-06-24T12:29:59;7.90;;;3.13;;
65162;SDS011;51751;55.714;37.436;2023-06-24T12:32:26;3.97;;;2.60;;
65162;SDS011;51751;55.714;37.436;2023-06-24T12:34:52;6.95;;;2.78;;
65162;SDS011;51751;55.714;37.436;2023-06-24T12:37:18;10.35;;;2.60;;
65162;SDS011;51751;55.714;37.436;2023-06-24T12:39:44;2.45;;;2.25;;
65162;SDS011;51751;55.714;37.436;2023-06-24T12:42:10;5.35;;;2.50;;
65162;SDS011;51751;55.714;37.436;2023-06-24T12:44:36;4.82;;;2.40;;
65162;SDS011;51751;55.714;37.436;2023-06-24T12:47:03;5.65;;;2.83;;
65162;SDS011;51751;55.714;37.436;2023-06-24T12:49:29;6.13;;;2.42;;
65162;SDS011;51751;55.714;37.436;2023-06-24T12:51:55;4.45;;;2.80;;
65162;SDS011;51751;55.714;37.436;2023-06-24T12:54:26;4.20;;;2.90;;
65162;SDS011;51751;55.714;37.436;2023-06-24T12:56:52;11.52;;;3.00;;
65162;SDS011;51751;55.714;37.436;2023-06-24T12:59:37;5.30;;;2.60;;
65162;SDS011;51751;55.714;37.436;2023-06-24T13:02:03;9.38;;;2.88;;
65162;SDS011;51751;55.714;37.436;2023-06-24T13:04:32;5.50;;;3.72;;
65162;SDS011;51751;55.714;37.436;2023-06-24T13:06:58;5.70;;;3.00;;
65162;SDS011;51751;55.714;37.436;2023-06-24T13:09:24;5.35;;;3.00;;
65162;SDS011;51751;55.714;37.436;2023-06-24T13:11:50;6.65;;;3.25;;
65162;SDS011;51751;55.714;37.436;2023-06-24T13:14:19;4.80;;;3.17;;
65162;SDS011;51751;55.714;37.436;2023-06-24T13:16:45;5.65;;;3.40;;
65162;SDS011;51751;55.714;37.436;2023-06-24T13:19:11;5.72;;;3.20;;
65162;SDS011;51751;55.714;37.436;2023-06-24T13:21:40;4.47;;;3.13;;
65162;SDS011;51751;55.714;37.436;2023-06-24T13:24:06;6.95;;;3.17;;
65162;SDS011;51751;55.714;37.436;2023-06-24T13:26:51;4.70;;;3.45;;
65162;SDS011;51751;55.714;37.436;2023-06-24T13:29:17;5.68;;;3.20;;
65162;SDS011;51751;55.714;37.436;2023-06-24T13:31:45;4.68;;;3.30;;
65162;SDS011;51751;55.714;37.436;2023-06-24T13:34:14;9.43;;;3.42;;
65162;SDS011;51751;55.714;37.436;2023-06-24T13:36:40;6.85;;;3.53;;
65162;SDS011;51751;55.714;37.436;2023-06-24T13:39:07;4.88;;;3.22;;
65162;SDS011;51751;55.714;37.436;2023-06-24T13:41:34;4.05;;;2.97;;
65162;SDS011;51751;55.714;37.436;2023-06-24T13:44:04;3.97;;;2.88;;
65162;SDS011;51751;55.714;37.436;2023-06-24T13:46:30;4.43;;;2.90;;
65162;SDS011;51751;55.714;37.436;2023-06-24T13:48:57;4.20;;;3.03;;
65162;SDS011;51751;55.714;37.436;2023-06-24T13:51:24;6.40;;;3.10;;
65162;SDS011;51751;55.714;37.436;2023-06-24T13:53:51;5.60;;;3.10;;
65162;SDS011;51751;55.714;37.436;2023-06-24T13:56:18;15.57;;;3.08;;
65162;SDS011;51751;55.714;37.436;2023-06-24T13:58:47;6.63;;;2.90;;
65162;SDS011;51751;55.714;37.436;2023-06-24T14:01:14;8.77;;;2.85;;
65162;SDS011;51751;55.714;37.436;2023-06-24T14:03:41;6.28;;;2.60;;
65162;SDS011;51751;55.714;37.436;2023-06-24T14:06:07;9.43;;;3.42;;
65162;SDS011;51751;55.714;37.436;2023-06-24T14:08:33;5.90;;;3.05;;
65162;SDS011;51751;55.714;37.436;2023-06-24T14:10:59;7.15;;;3.10;;
65162;SDS011;51751;55.714;37.436;2023-06-24T14:13:44;6.60;;;3.10;;
65162;SDS011;51751;55.714;37.436;2023-06-24T14:16:11;5.30;;;3.00;;
65162;SDS011;51751;55.714;37.436;2023-06-24T14:18:37;4.45;;;2.90;;
65162;SDS011;51751;55.714;37.436;2023-06-24T14:21:04;8.15;;;2.97;;
65162;SDS011;51751;55.714;37.436;2023-06-24T14:23:33;6.20;;;2.97;;
65162;SDS011;51751;55.714;37.436;2023-06-24T14:25:59;8.77;;;2.92;;
65162;SDS011;51751;55.714;37.436;2023-06-24T14:28:25;11.13;;;3.15;;
65162;SDS011;51751;55.714;37.436;2023-06-24T14:30:55;7.75;;;3.05;;
65162;SDS011;51751;55.714;37.436;2023-06-24T14:33:20;6.50;;;3.47;;
65162;SDS011;51751;55.714;37.436;2023-06-24T14:35:46;6.13;;;2.95;;
65162;SDS011;51751;55.714;37.436;2023-06-24T14:38:12;5.70;;;3.05;;
65162;SDS011;51751;55.714;37.436;2023-06-24T14:40:38;6.07;;;3.05;;
65162;SDS011;51751;55.714;37.436;2023-06-24T14:43:04;3.97;;;2.90;;
65162;SDS011;51751;55.714;37.436;2023-06-24T14:45:30;3.20;;;2.70;;
65162;SDS011;51751;55.714;37.436;2023-06-24T14:47:55;6.75;;;3.00;;
65162;SDS011;51751;55.714;37.436;2023-06-24T14:50:25;8.25;;;3.03;;
65162;SDS011;51751;55.714;37.436;2023-06-24T14:52:51;4.13;;;3.00;;
65162;SDS011;51751;55.714;37.436;2023-06-24T14:55:17;6.28;;;2.80;;
65162;SDS011;51751;55.714;37.436;2023-06-24T14:57:44;5.53;;;2.50;;